Time;durP1;ratioP1;P1;durP2;ratioP2;P2;SDS_P1;SDS_P2;PMS_P1;PMS_P2;Temp;Humidity;BMP_temperature;BMP_pressure;BME280_temperature;BME280_humidity;BME280_pressure;Samples;Min_cycle;Max_cycle;Signal;HPM_P1;HPM_P2
2022/01/06 00:01:07;;;;;;;;;;;3.70;99.90;;;;;;5071982;22;19927;-81
2022/01/06 00:03:34;;;;;;;;;;;3.70;99.90;;;;;;5077258;22;19924;-90
2022/01/06 00:08:48;;;;;;;;;;;3.70;99.90;;;;;;5116725;27;19912;-80
2022/01/06 00:11:14;;;;;;;;;;;3.60;99.90;;;;;;5082359;22;19967;-80
2022/01/06 00:13:57;;;;;;;;;;;3.70;99.90;;;;;;5055883;28;19932;-89
2022/01/06 00:24:14;;;;;;;;;;;3.70;99.90;;;;;;5072266;28;20023;-80
2022/01/06 00:26:40;;;;;;;;;;;3.70;99.90;;;;;;5055304;28;20405;-80
2022/01/06 00:29:06;;;;;;;;;;;3.70;99.90;;;;;;5071854;28;19925;-88
2022/01/06 00:31:32;;;;;;;;;;;3.70;99.90;;;;;;5055889;28;19931;-80
2022/01/06 00:33:57;;;;;;;;;;;4.20;99.90;;;;;;5055363;28;19925;-88
2022/01/06 00:36:23;;;;;;;;;;;3.80;99.90;;;;;;5055787;28;19947;-88
2022/01/06 00:38:49;;;;;;;;;;;4.40;99.90;;;;;;5071898;28;19928;-80
2022/01/06 00:41:14;;;;;;;;;;;3.70;99.90;;;;;;5054221;28;20281;-88
2022/01/06 00:43:40;;;;;;;;;;;3.70;99.90;;;;;;5073934;28;19924;-88
2022/01/06 00:46:05;;;;;;;;;;;3.70;99.90;;;;;;5054668;28;20020;-80
2022/01/06 00:48:31;;;;;;;;;;;4.40;99.90;;;;;;5054977;28;19925;-80
2022/01/06 00:50:56;;;;;;;;;;;3.80;99.90;;;;;;5055796;28;19924;-81
2022/01/06 00:53:22;;;;;;;;;;;3.60;99.90;;;;;;5072416;28;19925;-88
2022/01/06 00:55:47;;;;;;;;;;;4.00;99.90;;;;;;5071286;28;19925;-85
2022/01/06 00:58:14;;;;;;;;;;;4.10;99.90;;;;;;5054915;28;19925;-80
2022/01/06 01:00:40;;;;;;;;;;;3.40;99.90;;;;;;5072455;28;19971;-80
2022/01/06 01:03:15;;;;;;;;;;;3.70;99.90;;;;;;5055689;28;19925;-80
2022/01/06 01:05:42;;;;;;;;;;;3.40;99.90;;;;;;5072384;28;20020;-80
2022/01/06 01:08:08;;;;;;;;;;;4.00;99.90;;;;;;5072533;28;19978;-88
2022/01/06 01:10:34;;;;;;;;;;;4.00;99.90;;;;;;5056334;28;19928;-80
2022/01/06 01:13:00;;;;;;;;;;;3.20;99.90;;;;;;5070996;28;19925;-80
2022/01/06 01:15:27;;;;;;;;;;;3.20;99.90;;;;;;5071850;28;20055;-88
2022/01/06 01:17:53;;;;;;;;;;;3.70;99.90;;;;;;5038551;28;19932;-80
2022/01/06 01:20:20;;;;;;;;;;;3.20;99.90;;;;;;5040485;28;19972;-83
2022/01/06 01:22:46;;;;;;;;;;;3.20;99.90;;;;;;5040917;28;19929;-85
2022/01/06 01:25:12;;;;;;;;;;;3.20;99.90;;;;;;5054005;23;19948;-80
2022/01/06 01:27:43;;;;;;;;;;;3.60;99.90;;;;;;5038077;28;19971;-80
2022/01/06 01:30:12;;;;;;;;;;;3.10;99.90;;;;;;5038191;28;19971;-80
2022/01/06 01:32:39;;;;;;;;;;;3.00;99.90;;;;;;5039462;28;20020;-80
2022/01/06 01:35:07;;;;;;;;;;;3.20;99.90;;;;;;5040593;28;19925;-80
2022/01/06 01:37:33;;;;;;;;;;;3.00;99.90;;;;;;5038803;28;20283;-80
2022/01/06 01:39:58;;;;;;;;;;;2.90;99.90;;;;;;5022402;28;19971;-80
2022/01/06 01:42:24;;;;;;;;;;;2.90;99.90;;;;;;5039607;28;20272;-80
2022/01/06 01:44:51;;;;;;;;;;;2.90;99.90;;;;;;5037179;28;20023;-81
2022/01/06 01:47:27;;;;;;;;;;;2.80;99.90;;;;;;5036055;28;19925;-86
2022/01/06 01:49:58;;;;;;;;;;;3.20;99.90;;;;;;5036873;28;19951;-80
2022/01/06 01:52:23;;;;;;;;;;;2.80;99.90;;;;;;5036160;28;19971;-80
2022/01/06 01:54:49;;;;;;;;;;;3.20;99.90;;;;;;5037014;28;20356;-80
2022/01/06 01:57:15;;;;;;;;;;;2.70;99.90;;;;;;5035738;28;19921;-80
2022/01/06 01:59:40;;;;;;;;;;;2.70;99.90;;;;;;5037783;28;19932;-87
2022/01/06 02:02:06;;;;;;;;;;;2.70;99.90;;;;;;5036244;28;19963;-89
2022/01/06 02:04:31;;;;;;;;;;;2.80;99.90;;;;;;5035969;28;20371;-80
2022/01/06 02:06:57;;;;;;;;;;;2.70;99.90;;;;;;5035439;28;19925;-80
2022/01/06 02:09:23;;;;;;;;;;;3.10;99.90;;;;;;5037376;28;19925;-80
2022/01/06 02:11:48;;;;;;;;;;;2.80;99.90;;;;;;5020376;28;19921;-84
2022/01/06 02:14:14;;;;;;;;;;;2.80;99.90;;;;;;5020090;28;19961;-80
2022/01/06 02:16:39;;;;;;;;;;;2.80;99.90;;;;;;5036629;28;19964;-80
2022/01/06 02:19:05;;;;;;;;;;;2.80;99.90;;;;;;5035940;28;19929;-80
2022/01/06 02:21:30;;;;;;;;;;;2.80;99.90;;;;;;5036769;28;20042;-81
2022/01/06 02:23:56;;;;;;;;;;;3.30;99.90;;;;;;5036097;28;19925;-81
2022/01/06 02:26:22;;;;;;;;;;;3.20;99.90;;;;;;5038002;28;19925;-88
2022/01/06 02:28:47;;;;;;;;;;;2.80;99.90;;;;;;5052677;28;19976;-88
2022/01/06 02:31:13;;;;;;;;;;;2.60;99.90;;;;;;5035942;28;19925;-80
2022/01/06 02:33:39;;;;;;;;;;;2.40;99.90;;;;;;5037345;28;19925;-84
2022/01/06 02:36:04;;;;;;;;;;;2.30;99.90;;;;;;5021194;28;19929;-88
2022/01/06 02:38:30;;;;;;;;;;;2.30;99.90;;;;;;5037204;28;20414;-80
2022/01/06 02:40:55;;;;;;;;;;;2.20;99.90;;;;;;5036385;28;20079;-88
2022/01/06 02:43:23;;;;;;;;;;;2.80;99.90;;;;;;5038289;28;20372;-88
2022/01/06 02:45:49;;;;;;;;;;;2.10;99.90;;;;;;5036461;28;20067;-88
2022/01/06 02:48:15;;;;;;;;;;;2.10;99.90;;;;;;5035398;28;20395;-80
2022/01/06 02:50:42;;;;;;;;;;;2.20;99.90;;;;;;5053139;28;20020;-80
2022/01/06 02:53:09;;;;;;;;;;;1.90;99.90;;;;;;5035838;28;19976;-80
2022/01/06 02:55:35;;;;;;;;;;;1.90;99.90;;;;;;5019332;28;20372;-80
2022/01/06 02:58:01;;;;;;;;;;;1.80;99.90;;;;;;5036437;28;19979;-80
2022/01/06 03:00:27;;;;;;;;;;;1.80;99.90;;;;;;5036190;28;19925;-88
2022/01/06 03:02:52;;;;;;;;;;;1.70;99.90;;;;;;5019059;28;19925;-80
2022/01/06 03:05:18;;;;;;;;;;;1.60;99.90;;;;;;5036068;28;20015;-80
2022/01/06 03:07:44;;;;;;;;;;;1.70;99.90;;;;;;5019042;28;19925;-80
2022/01/06 03:10:11;;;;;;;;;;;1.80;99.90;;;;;;5037185;28;19936;-86
2022/01/06 03:12:39;;;;;;;;;;;1.70;99.90;;;;;;5035984;28;19928;-80
2022/01/06 03:15:12;;;;;;;;;;;1.70;99.90;;;;;;5036276;28;19964;-80
2022/01/06 03:17:38;;;;;;;;;;;1.80;99.90;;;;;;5035033;28;20292;-80
2022/01/06 03:20:04;;;;;;;;;;;1.80;99.90;;;;;;5034749;28;19921;-80
2022/01/06 03:22:30;;;;;;;;;;;1.80;99.90;;;;;;5035451;28;19936;-80
2022/01/06 03:24:56;;;;;;;;;;;1.80;99.90;;;;;;5052073;28;20016;-84
2022/01/06 03:27:22;;;;;;;;;;;1.90;99.90;;;;;;5035389;28;20299;-88
2022/01/06 03:29:49;;;;;;;;;;;1.80;99.90;;;;;;5018907;28;19925;-88
2022/01/06 03:32:16;;;;;;;;;;;2.10;99.90;;;;;;5037144;28;20327;-80
2022/01/06 03:34:41;;;;;;;;;;;1.90;99.90;;;;;;5037269;28;19925;-80
2022/01/06 03:37:07;;;;;;;;;;;1.60;99.90;;;;;;5019379;28;19925;-83
2022/01/06 03:39:33;;;;;;;;;;;2.20;99.90;;;;;;5019491;28;19936;-80
2022/01/06 03:41:59;;;;;;;;;;;1.90;99.90;;;;;;5034597;28;19995;-88
2022/01/06 03:44:24;;;;;;;;;;;1.40;99.90;;;;;;5052546;28;19978;-80
2022/01/06 03:46:50;;;;;;;;;;;1.50;99.90;;;;;;5035905;28;19936;-84
2022/01/06 03:49:15;;;;;;;;;;;1.70;99.90;;;;;;5037388;28;19925;-79
2022/01/06 03:51:41;;;;;;;;;;;1.30;99.90;;;;;;5035644;28;20346;-80
2022/01/06 03:54:06;;;;;;;;;;;1.50;99.90;;;;;;5035704;28;19929;-89
2022/01/06 03:56:32;;;;;;;;;;;1.30;99.90;;;;;;5052370;28;19932;-80
2022/01/06 03:58:58;;;;;;;;;;;1.80;99.90;;;;;;5020417;28;20012;-88
2022/01/06 04:01:24;;;;;;;;;;;1.20;99.90;;;;;;5025533;23;19933;-89
2022/01/06 04:03:49;;;;;;;;;;;1.20;99.90;;;;;;5036203;28;19925;-89
2022/01/06 04:06:15;;;;;;;;;;;1.20;99.90;;;;;;5027806;28;19972;-79
2022/01/06 04:08:41;;;;;;;;;;;1.10;99.90;;;;;;5015227;28;19936;-80
2022/01/06 04:11:07;;;;;;;;;;;1.10;99.90;;;;;;5015973;28;19995;-81
2022/01/06 04:13:33;;;;;;;;;;;1.00;99.90;;;;;;5015083;28;19993;-80
2022/01/06 04:16:02;;;;;;;;;;;1.10;99.90;;;;;;5016334;28;19971;-88
2022/01/06 04:18:27;;;;;;;;;;;1.10;99.90;;;;;;5016209;28;19925;-80
2022/01/06 04:20:53;;;;;;;;;;;1.50;99.90;;;;;;4998700;28;19933;-80
2022/01/06 04:23:18;;;;;;;;;;;1.80;99.90;;;;;;5015112;28;19932;-88
2022/01/06 04:25:44;;;;;;;;;;;1.00;99.90;;;;;;5015905;28;19932;-82
2022/01/06 04:28:09;;;;;;;;;;;1.00;99.90;;;;;;5014608;28;20376;-88
2022/01/06 04:30:35;;;;;;;;;;;0.90;99.90;;;;;;4998794;28;20292;-80
2022/01/06 04:33:01;;;;;;;;;;;0.90;99.90;;;;;;5015686;28;19937;-89
2022/01/06 04:35:26;;;;;;;;;;;0.80;99.90;;;;;;5016000;28;19936;-80
2022/01/06 04:37:52;;;;;;;;;;;1.50;99.90;;;;;;5015603;28;19926;-80
2022/01/06 04:40:17;;;;;;;;;;;0.80;99.90;;;;;;5014342;28;19925;-80
2022/01/06 04:42:43;;;;;;;;;;;0.80;99.90;;;;;;5013777;28;19968;-87
2022/01/06 04:45:09;;;;;;;;;;;0.70;99.90;;;;;;4998428;28;19932;-80
2022/01/06 04:47:34;;;;;;;;;;;0.80;99.90;;;;;;5014585;28;20044;-80
2022/01/06 04:50:00;;;;;;;;;;;0.70;99.90;;;;;;5015492;28;19932;-89
2022/01/06 04:52:25;;;;;;;;;;;0.80;99.90;;;;;;5014374;28;20016;-80
2022/01/06 04:54:51;;;;;;;;;;;0.70;99.90;;;;;;5016401;28;19937;-80
2022/01/06 04:57:17;;;;;;;;;;;0.70;99.90;;;;;;5017543;28;19992;-88
2022/01/06 04:59:43;;;;;;;;;;;0.60;99.90;;;;;;5017729;28;19926;-80
2022/01/06 05:02:08;;;;;;;;;;;0.60;99.90;;;;;;5017072;28;19932;-79
2022/01/06 05:04:34;;;;;;;;;;;0.50;99.90;;;;;;5017084;28;20307;-80
2022/01/06 05:07:00;;;;;;;;;;;0.50;99.90;;;;;;5000837;28;19932;-88
2022/01/06 05:09:25;;;;;;;;;;;0.50;99.90;;;;;;5017395;28;19926;-80
2022/01/06 05:11:51;;;;;;;;;;;0.90;99.90;;;;;;5016868;28;19929;-88
2022/01/06 05:14:16;;;;;;;;;;;0.40;99.90;;;;;;5018373;28;20016;-79
2022/01/06 05:16:42;;;;;;;;;;;1.30;99.90;;;;;;5017298;28;19926;-81
2022/01/06 05:19:07;;;;;;;;;;;0.40;99.90;;;;;;5018232;28;19925;-81
2022/01/06 05:21:33;;;;;;;;;;;0.40;99.90;;;;;;5019479;28;20300;-88
2022/01/06 05:23:59;;;;;;;;;;;0.70;99.90;;;;;;5017961;28;20373;-90
2022/01/06 05:26:25;;;;;;;;;;;0.40;99.90;;;;;;5017401;28;19933;-81
2022/01/06 05:28:51;;;;;;;;;;;0.40;99.90;;;;;;5018646;28;20019;-81
2022/01/06 05:31:16;;;;;;;;;;;1.00;99.90;;;;;;5019540;28;19980;-88
2022/01/06 05:33:42;;;;;;;;;;;0.30;99.90;;;;;;5002066;28;19961;-80
2022/01/06 05:36:07;;;;;;;;;;;0.30;99.90;;;;;;5018636;28;19926;-80
2022/01/06 05:38:33;;;;;;;;;;;0.30;99.90;;;;;;5018252;28;19973;-88
2022/01/06 05:40:59;;;;;;;;;;;0.30;99.90;;;;;;5019161;28;19929;-88
2022/01/06 05:43:25;;;;;;;;;;;0.30;99.90;;;;;;5018862;28;19930;-80
2022/01/06 05:45:53;;;;;;;;;;;0.30;99.90;;;;;;5017110;28;19989;-80
2022/01/06 05:48:19;;;;;;;;;;;0.20;99.90;;;;;;5019149;28;19925;-80
2022/01/06 05:50:48;;;;;;;;;;;0.30;99.90;;;;;;5018732;28;19932;-80
2022/01/06 05:53:14;;;;;;;;;;;0.20;99.90;;;;;;5018046;28;19926;-80
2022/01/06 05:55:40;;;;;;;;;;;0.30;99.90;;;;;;5017833;28;20071;-80
2022/01/06 05:58:05;;;;;;;;;;;0.20;99.90;;;;;;5017514;28;19929;-81
2022/01/06 06:00:31;;;;;;;;;;;0.20;99.90;;;;;;5018960;28;19937;-80
2022/01/06 06:02:56;;;;;;;;;;;0.20;99.90;;;;;;5019151;28;19980;-82
2022/01/06 06:05:22;;;;;;;;;;;0.20;99.90;;;;;;5017212;28;20024;-80
2022/01/06 06:07:47;;;;;;;;;;;0.20;99.90;;;;;;5016227;28;20292;-80
2022/01/06 06:10:13;;;;;;;;;;;0.40;99.90;;;;;;5016527;28;19925;-80
2022/01/06 06:12:38;;;;;;;;;;;0.60;99.90;;;;;;5016045;28;19925;-80
2022/01/06 06:15:04;;;;;;;;;;;0.10;99.90;;;;;;4999780;28;19925;-81
2022/01/06 06:17:30;;;;;;;;;;;0.10;99.90;;;;;;5016824;28;19972;-80
2022/01/06 06:19:55;;;;;;;;;;;0.10;99.90;;;;;;5017440;28;19933;-81
2022/01/06 06:22:21;;;;;;;;;;;0.00;99.90;;;;;;5015823;28;19931;-80
2022/01/06 06:24:46;;;;;;;;;;;0.10;99.90;;;;;;5032795;28;20269;-81
2022/01/06 06:27:12;;;;;;;;;;;0.00;99.90;;;;;;5032498;28;19925;-80
2022/01/06 06:29:38;;;;;;;;;;;0.00;99.90;;;;;;5015964;28;19947;-81
2022/01/06 06:32:04;;;;;;;;;;;-0.10;99.90;;;;;;5019586;28;20370;-80
2022/01/06 06:34:29;;;;;;;;;;;-0.10;99.90;;;;;;5021762;28;19932;-80
2022/01/06 06:36:55;;;;;;;;;;;-0.20;99.90;;;;;;5019706;28;19961;-80
2022/01/06 06:39:21;;;;;;;;;;;-0.20;99.90;;;;;;5019680;28;19929;-85
2022/01/06 06:41:46;;;;;;;;;;;0.50;99.90;;;;;;5018354;28;19971;-83
2022/01/06 06:44:12;;;;;;;;;;;-0.10;99.90;;;;;;5017547;28;19932;-81
2022/01/06 06:46:37;;;;;;;;;;;-0.10;99.90;;;;;;4999492;28;19982;-81
2022/01/06 06:49:03;;;;;;;;;;;-0.20;99.90;;;;;;5015466;28;19925;-81
2022/01/06 06:51:28;;;;;;;;;;;0.20;99.90;;;;;;5015231;28;20383;-81
2022/01/06 06:53:54;;;;;;;;;;;-0.20;99.90;;;;;;5053536;23;20334;-81
2022/01/06 06:56:19;;;;;;;;;;;-0.20;99.90;;;;;;5034745;28;19932;-81
2022/01/06 06:58:45;;;;;;;;;;;-0.20;99.90;;;;;;5034712;28;20305;-81
2022/01/06 07:01:11;;;;;;;;;;;-0.20;99.90;;;;;;5033765;23;19925;-80
2022/01/06 07:03:36;;;;;;;;;;;-0.20;99.90;;;;;;5033887;28;20400;-81
2022/01/06 07:06:02;;;;;;;;;;;-0.20;99.90;;;;;;5034506;28;19931;-81
2022/01/06 07:08:27;;;;;;;;;;;-0.20;99.90;;;;;;5051189;28;19972;-89
2022/01/06 07:10:53;;;;;;;;;;;-0.20;99.90;;;;;;5041256;23;19925;-81
2022/01/06 07:13:19;;;;;;;;;;;-0.20;99.90;;;;;;5041517;23;20352;-80
2022/01/06 07:15:45;;;;;;;;;;;-0.20;99.90;;;;;;5041314;23;19925;-90
2022/01/06 07:18:11;;;;;;;;;;;-0.20;99.90;;;;;;5033579;28;20287;-81
2022/01/06 07:20:37;;;;;;;;;;;-0.20;99.90;;;;;;5024881;23;20364;-81
2022/01/06 07:23:02;;;;;;;;;;;0.30;99.90;;;;;;5043977;23;19988;-80
2022/01/06 07:25:28;;;;;;;;;;;-0.20;99.90;;;;;;5052610;28;19925;-81
2022/01/06 07:27:53;;;;;;;;;;;-0.20;99.90;;;;;;5060795;23;19963;-81
2022/01/06 07:30:19;;;;;;;;;;;-0.20;99.90;;;;;;5063375;23;19924;-81
2022/01/06 07:32:46;;;;;;;;;;;-0.20;99.90;;;;;;5073865;28;19928;-81
2022/01/06 07:35:12;;;;;;;;;;;-0.20;99.90;;;;;;5082723;22;20317;-81
2022/01/06 07:37:38;;;;;;;;;;;-0.20;99.90;;;;;;5076673;28;19924;-81
2022/01/06 07:40:08;;;;;;;;;;;0.00;99.90;;;;;;5068660;22;19947;-81
2022/01/06 07:42:34;;;;;;;;;;;-0.20;99.90;;;;;;5077542;23;19963;-81
2022/01/06 07:47:26;;;;;;;;;;;-0.20;99.90;;;;;;5118816;22;19928;-80
2022/01/06 07:49:51;;;;;;;;;;;-0.20;99.90;;;;;;5059985;28;19928;-81
2022/01/06 07:52:17;;;;;;;;;;;-0.10;99.90;;;;;;5060647;28;19975;-81
2022/01/06 07:54:43;;;;;;;;;;;-0.10;99.90;;;;;;5071064;22;20379;-81
2022/01/06 07:57:10;;;;;;;;;;;-0.10;99.90;;;;;;5077662;22;19932;-80
2022/01/06 07:59:36;;;;;;;;;;;-0.10;99.90;;;;;;5104596;22;20003;-82
2022/01/06 08:02:02;;;;;;;;;;;-0.10;99.90;;;;;;5090127;22;19970;-81
2022/01/06 08:04:27;;;;;;;;;;;0.00;99.90;;;;;;5082386;22;19924;-80
2022/01/06 08:06:53;;;;;;;;;;;0.00;99.90;;;;;;5081820;22;19932;-81
2022/01/06 08:09:18;;;;;;;;;;;0.00;99.90;;;;;;5074293;22;20298;-81
2022/01/06 08:11:45;;;;;;;;;;;0.00;99.90;;;;;;5066247;22;19925;-81
2022/01/06 08:14:10;;;;;;;;;;;0.00;99.90;;;;;;5073494;22;19928;-81
2022/01/06 08:16:36;;;;;;;;;;;0.70;99.90;;;;;;5070481;22;19932;-81
2022/01/06 08:19:04;;;;;;;;;;;0.10;99.90;;;;;;5094101;22;19967;31
2022/01/06 08:21:30;;;;;;;;;;;0.10;99.90;;;;;;5072394;22;20332;-81
2022/01/06 08:23:55;;;;;;;;;;;0.10;99.90;;;;;;5077971;22;19987;-81
2022/01/06 08:26:21;;;;;;;;;;;0.20;99.90;;;;;;5063980;22;19925;-81
2022/01/06 08:28:46;;;;;;;;;;;0.20;99.90;;;;;;5037724;28;19929;-81
2022/01/06 08:31:13;;;;;;;;;;;0.20;99.90;;;;;;5057555;22;19925;-81
2022/01/06 08:33:39;;;;;;;;;;;0.20;99.90;;;;;;5089747;22;19931;-81
2022/01/06 08:36:06;;;;;;;;;;;0.20;99.90;;;;;;5096695;22;19924;-80
2022/01/06 08:38:31;;;;;;;;;;;0.30;99.90;;;;;;5077607;22;19963;-81
2022/01/06 08:40:57;;;;;;;;;;;0.30;99.90;;;;;;5062814;23;20395;-81
2022/01/06 08:43:27;;;;;;;;;;;0.30;99.90;;;;;;5086851;22;19925;-81
2022/01/06 08:45:56;;;;;;;;;;;1.00;99.90;;;;;;5064406;28;19931;-81
2022/01/06 08:48:22;;;;;;;;;;;0.50;99.90;;;;;;5071117;22;19957;-81
2022/01/06 08:50:48;;;;;;;;;;;0.40;99.90;;;;;;5063571;28;20374;-81
2022/01/06 08:53:13;;;;;;;;;;;0.50;99.90;;;;;;5083671;22;20275;-81
2022/01/06 08:55:39;;;;;;;;;;;0.50;99.90;;;;;;5084844;22;19924;-81
2022/01/06 08:58:08;;;;;;;;;;;0.60;99.90;;;;;;5076577;22;19928;31
2022/01/06 09:00:35;;;;;;;;;;;0.70;99.90;;;;;;5086138;22;19929;-81
2022/01/06 09:03:01;;;;;;;;;;;0.70;99.90;;;;;;5061827;22;19924;-81
2022/01/06 09:05:27;;;;;;;;;;;0.70;99.90;;;;;;5072530;22;19925;-81
2022/01/06 09:07:52;;;;;;;;;;;0.80;99.90;;;;;;5061696;22;20025;-81
2022/01/06 09:10:19;;;;;;;;;;;0.80;99.90;;;;;;5093403;22;19975;-81
2022/01/06 09:12:45;;;;;;;;;;;0.80;99.90;;;;;;5080928;22;20314;-81
2022/01/06 09:15:11;;;;;;;;;;;0.80;99.90;;;;;;5104631;22;19924;-81
2022/01/06 09:17:38;;;;;;;;;;;0.80;99.90;;;;;;5080376;22;19983;-81
2022/01/06 09:20:11;;;;;;;;;;;0.80;99.90;;;;;;5093428;22;19928;-81
2022/01/06 09:22:36;;;;;;;;;;;0.90;99.90;;;;;;5076824;22;19964;-88
2022/01/06 09:25:03;;;;;;;;;;;1.00;99.90;;;;;;5094941;22;19931;-80
2022/01/06 09:27:30;;;;;;;;;;;1.10;99.90;;;;;;5076283;22;19931;-81
2022/01/06 09:29:56;;;;;;;;;;;1.20;99.90;;;;;;5069987;22;19925;-81
2022/01/06 09:32:21;;;;;;;;;;;1.20;99.90;;;;;;5085088;22;19925;-81
2022/01/06 09:34:47;;;;;;;;;;;1.30;99.90;;;;;;5096540;22;20409;-81
2022/01/06 09:37:13;;;;;;;;;;;1.40;99.90;;;;;;5095616;22;20016;-82
2022/01/06 09:39:39;;;;;;;;;;;2.10;99.90;;;;;;5089953;22;19948;-81
2022/01/06 09:42:10;;;;;;;;;;;1.60;99.90;;;;;;5080580;22;19928;31
2022/01/06 09:44:36;;;;;;;;;;;1.70;99.90;;;;;;5084182;22;19925;-81
2022/01/06 09:49:29;;;;;;;;;;;1.80;99.90;;;;;;5083880;22;21058;-81
2022/01/06 09:51:55;;;;;;;;;;;1.90;99.90;;;;;;5080156;22;19943;-81
2022/01/06 09:54:20;;;;;;;;;;;2.10;99.90;;;;;;5041571;28;19928;-81
2022/01/06 09:56:46;;;;;;;;;;;2.60;99.90;;;;;;5069772;22;19931;-81
2022/01/06 09:59:11;;;;;;;;;;;2.30;99.90;;;;;;5109800;22;19954;-81
2022/01/06 10:01:37;;;;;;;;;;;2.40;99.90;;;;;;5068219;23;20302;-81
2022/01/06 10:04:03;;;;;;;;;;;2.40;99.90;;;;;;5084825;22;19924;-82
2022/01/06 10:06:28;;;;;;;;;;;2.50;99.90;;;;;;5077476;28;19983;-81
2022/01/06 10:08:54;;;;;;;;;;;2.50;99.90;;;;;;5061324;28;19966;-82
2022/01/06 10:11:21;;;;;;;;;;;2.70;99.90;;;;;;5081018;22;19995;-81
2022/01/06 10:13:59;;;;;;;;;;;3.40;99.90;;;;;;5093164;22;19925;-82
2022/01/06 10:16:25;;;;;;;;;;;2.80;99.90;;;;;;5091085;22;19924;-81
2022/01/06 10:19:07;;;;;;;;;;;2.80;99.90;;;;;;5099448;22;19999;-82
2022/01/06 10:21:41;;;;;;;;;;;2.90;99.90;;;;;;5066677;23;19928;-81
2022/01/06 10:24:10;;;;;;;;;;;3.00;99.90;;;;;;5099632;22;19931;-81
2022/01/06 10:26:36;;;;;;;;;;;3.00;99.90;;;;;;5091986;22;20375;-82
2022/01/06 10:29:07;;;;;;;;;;;3.00;99.90;;;;;;5089345;22;19947;-81
2022/01/06 10:31:32;;;;;;;;;;;3.10;99.90;;;;;;5099643;22;19963;-82
2022/01/06 10:34:08;;;;;;;;;;;3.20;99.90;;;;;;5096633;22;19932;-82
2022/01/06 10:36:35;;;;;;;;;;;3.30;99.90;;;;;;5078130;22;19974;-82
2022/01/06 10:39:08;;;;;;;;;;;3.40;99.90;;;;;;5088300;22;19924;-82
2022/01/06 10:41:35;;;;;;;;;;;3.50;99.90;;;;;;5085981;22;19928;-88
2022/01/06 10:44:00;;;;;;;;;;;3.50;99.90;;;;;;5092484;22;19928;-81
2022/01/06 10:46:32;;;;;;;;;;;3.70;99.90;;;;;;5105669;22;19930;-81
2022/01/06 10:49:06;;;;;;;;;;;3.70;99.90;;;;;;5089703;22;19924;-86
2022/01/06 10:51:32;;;;;;;;;;;3.80;99.90;;;;;;5096078;22;19928;-81
2022/01/06 10:53:57;;;;;;;;;;;3.80;99.90;;;;;;5087375;22;19946;-81
2022/01/06 10:56:24;;;;;;;;;;;3.90;99.90;;;;;;5089912;22;19931;-81
2022/01/06 10:58:50;;;;;;;;;;;4.10;99.90;;;;;;5074947;22;19950;-81
2022/01/06 11:01:16;;;;;;;;;;;4.00;99.90;;;;;;5086238;22;20325;-82
2022/01/06 11:03:42;;;;;;;;;;;4.10;99.90;;;;;;5086727;22;20390;-81
2022/01/06 11:06:10;;;;;;;;;;;4.10;99.90;;;;;;5109924;22;19931;-82
2022/01/06 11:08:39;;;;;;;;;;;4.20;99.90;;;;;;5072486;23;20015;-81
2022/01/06 11:13:36;;;;;;;;;;;4.30;99.90;;;;;;5093720;22;19935;-81
2022/01/06 11:16:02;;;;;;;;;;;4.30;99.90;;;;;;5073248;22;20287;-82
2022/01/06 11:18:28;;;;;;;;;;;4.30;99.90;;;;;;5088212;22;19935;-90
2022/01/06 11:21:09;;;;;;;;;;;4.40;99.90;;;;;;5071957;22;19932;-81
2022/01/06 11:23:34;;;;;;;;;;;4.40;99.90;;;;;;5088174;22;20027;-82
2022/01/06 11:26:08;;;;;;;;;;;5.00;99.90;;;;;;5087806;22;19948;-81
2022/01/06 11:28:34;;;;;;;;;;;4.50;99.90;;;;;;5089346;22;19924;-81
2022/01/06 11:33:38;;;;;;;;;;;4.60;99.90;;;;;;5122299;22;20312;-81
2022/01/06 11:36:18;;;;;;;;;;;4.60;99.90;;;;;;5086969;22;19940;31
2022/01/06 11:38:45;;;;;;;;;;;4.70;99.90;;;;;;5098561;22;20001;-81
2022/01/06 11:41:11;;;;;;;;;;;4.70;99.90;;;;;;5096195;22;19924;-81
2022/01/06 11:43:37;;;;;;;;;;;4.90;99.90;;;;;;5081520;22;19924;-81
2022/01/06 11:46:09;;;;;;;;;;;5.00;99.90;;;;;;5095937;22;20019;-81
2022/01/06 11:49:14;;;;;;;;;;;5.00;99.90;;;;;;5085239;22;19992;-81
2022/01/06 11:51:39;;;;;;;;;;;5.10;99.90;;;;;;5049679;23;19962;-81
2022/01/06 11:54:18;;;;;;;;;;;5.10;99.90;;;;;;5095358;22;19988;-81
2022/01/06 11:56:47;;;;;;;;;;;5.20;99.90;;;;;;5089193;22;20362;-81
2022/01/06 11:59:14;;;;;;;;;;;5.30;99.90;;;;;;5079597;22;19988;-81
2022/01/06 12:01:47;;;;;;;;;;;5.20;99.90;;;;;;5085091;22;19930;-81
2022/01/06 12:04:22;;;;;;;;;;;5.20;99.90;;;;;;5073756;22;19931;-81
2022/01/06 12:06:48;;;;;;;;;;;5.20;99.90;;;;;;5058170;22;19971;-82
2022/01/06 12:09:16;;;;;;;;;;;5.90;99.90;;;;;;5114043;22;19924;-81
2022/01/06 12:11:42;;;;;;;;;;;5.20;99.90;;;;;;5086670;22;19925;-81
2022/01/06 12:14:10;;;;;;;;;;;5.30;99.90;;;;;;5107773;22;19924;-81
2022/01/06 12:16:37;;;;;;;;;;;5.30;99.90;;;;;;5073462;22;19932;-81
2022/01/06 12:19:14;;;;;;;;;;;5.30;99.90;;;;;;5099110;22;19931;-81
2022/01/06 12:21:39;;;;;;;;;;;5.40;99.90;;;;;;5064980;22;20359;-89
2022/01/06 12:24:12;;;;;;;;;;;5.30;99.90;;;;;;5072068;22;19936;31
2022/01/06 12:26:39;;;;;;;;;;;5.40;99.90;;;;;;5068729;22;19931;-89
2022/01/06 12:29:10;;;;;;;;;;;5.40;99.90;;;;;;5101206;22;19928;-88
2022/01/06 12:31:35;;;;;;;;;;;6.20;99.90;;;;;;5072989;22;19924;-82
2022/01/06 12:34:08;;;;;;;;;;;5.50;99.90;;;;;;5086733;22;19925;-82
2022/01/06 12:36:35;;;;;;;;;;;5.60;99.90;;;;;;5056994;28;19932;-82
2022/01/06 12:39:07;;;;;;;;;;;5.60;99.90;;;;;;5080182;22;20371;-82
2022/01/06 12:41:34;;;;;;;;;;;5.70;99.90;;;;;;5100982;22;19932;-81
2022/01/06 12:46:38;;;;;;;;;;;5.70;99.90;;;;;;5108587;22;19925;-87
2022/01/06 12:49:10;;;;;;;;;;;5.70;99.90;;;;;;5074762;22;19930;-89
2022/01/06 12:51:38;;;;;;;;;;;5.70;99.90;;;;;;5067841;22;19924;-81
2022/01/06 12:54:04;;;;;;;;;;;5.70;99.90;;;;;;5050193;22;20449;-82
2022/01/06 12:56:32;;;;;;;;;;;6.20;99.90;;;;;;5103054;22;19935;-82
2022/01/06 12:59:17;;;;;;;;;;;5.70;99.90;;;;;;5090974;22;20374;-81
2022/01/06 13:01:43;;;;;;;;;;;5.70;99.90;;;;;;5041300;22;19970;-82
2022/01/06 13:04:10;;;;;;;;;;;5.70;99.90;;;;;;5090772;22;20291;-81
2022/01/06 13:06:37;;;;;;;;;;;5.80;99.90;;;;;;5096610;22;20010;-82
2022/01/06 13:09:19;;;;;;;;;;;5.80;99.90;;;;;;5101795;22;19931;-81
2022/01/06 13:11:50;;;;;;;;;;;5.70;99.90;;;;;;5088124;22;20317;-82
2022/01/06 13:14:26;;;;;;;;;;;5.70;99.90;;;;;;5117787;22;20401;-82
2022/01/06 13:16:52;;;;;;;;;;;5.60;99.90;;;;;;5087376;22;19925;-82
2022/01/06 13:19:18;;;;;;;;;;;5.50;99.90;;;;;;5026532;22;1812554;-82
2022/01/06 13:21:48;;;;;;;;;;;5.50;99.90;;;;;;5079988;23;20007;-81
2022/01/06 13:24:14;;;;;;;;;;;5.60;99.90;;;;;;5075795;22;19929;-82
2022/01/06 13:26:44;;;;;;;;;;;5.90;99.90;;;;;;5092002;22;19924;-82
2022/01/06 13:29:09;;;;;;;;;;;5.70;99.90;;;;;;5105300;22;20403;-82
2022/01/06 13:31:35;;;;;;;;;;;5.80;99.90;;;;;;5048284;28;19924;-82
2022/01/06 13:34:00;;;;;;;;;;;5.90;99.90;;;;;;5048419;28;19929;-89
2022/01/06 13:36:27;;;;;;;;;;;6.50;99.90;;;;;;5049757;28;19925;-82
2022/01/06 13:38:52;;;;;;;;;;;7.10;99.90;;;;;;5056968;23;19932;-82
2022/01/06 13:41:24;;;;;;;;;;;7.00;99.90;;;;;;5077032;23;19928;-82
2022/01/06 13:43:55;;;;;;;;;;;7.40;99.90;;;;;;5080905;22;19980;-82
2022/01/06 13:46:23;;;;;;;;;;;7.80;99.90;;;;;;5069534;28;19924;-81
2022/01/06 13:51:04;;;;;;;;;;;8.30;99.90;;;;;;5097282;22;19928;-82
2022/01/06 13:51:29;;;;;;;;;;;7.70;99.90;;;;;;5117863;22;21779;-82
2022/01/06 13:53:55;;;;;;;;;;;7.60;99.90;;;;;;5074154;23;19925;-82
2022/01/06 13:56:32;;;;;;;;;;;7.50;99.90;;;;;;5077088;22;19935;-82
2022/01/06 13:59:07;;;;;;;;;;;7.40;99.90;;;;;;5069964;23;19925;-82
2022/01/06 14:01:32;;;;;;;;;;;7.30;99.90;;;;;;5102043;22;19935;-82
2022/01/06 14:03:58;;;;;;;;;;;7.30;99.90;;;;;;5087283;28;19924;-82
2022/01/06 14:06:25;;;;;;;;;;;8.10;99.90;;;;;;5096306;22;19989;-81
2022/01/06 14:08:51;;;;;;;;;;;7.40;99.90;;;;;;5075574;23;19928;-82
2022/01/06 14:11:18;;;;;;;;;;;7.50;99.90;;;;;;5066962;28;19986;-88
2022/01/06 14:13:44;;;;;;;;;;;7.60;99.90;;;;;;5064126;28;19931;-82
2022/01/06 14:16:10;;;;;;;;;;;7.30;99.90;;;;;;5103282;22;20464;-81
2022/01/06 14:18:36;;;;;;;;;;;7.00;99.90;;;;;;5067345;22;19924;-82
2022/01/06 14:21:02;;;;;;;;;;;6.70;99.90;;;;;;5098323;22;20374;-82
2022/01/06 14:23:30;;;;;;;;;;;6.40;99.90;;;;;;5081886;22;19973;-82
2022/01/06 14:25:56;;;;;;;;;;;6.20;99.90;;;;;;5098711;22;19935;-81
2022/01/06 14:28:22;;;;;;;;;;;5.90;99.90;;;;;;5087693;28;20370;-81
2022/01/06 14:30:47;;;;;;;;;;;5.80;99.90;;;;;;5083345;28;19930;-81
2022/01/06 14:33:13;;;;;;;;;;;6.00;99.90;;;;;;5109791;28;19904;-81
2022/01/06 14:35:39;;;;;;;;;;;5.50;99.90;;;;;;5082661;22;20011;-81
2022/01/06 14:38:05;;;;;;;;;;;5.40;99.90;;;;;;5060346;28;19925;-82
2022/01/06 14:40:31;;;;;;;;;;;5.40;99.90;;;;;;5091633;22;19932;-81
2022/01/06 14:42:58;;;;;;;;;;;5.40;99.90;;;;;;5083648;22;19929;-81
2022/01/06 14:45:26;;;;;;;;;;;5.40;99.90;;;;;;5060271;28;19932;-90
2022/01/06 14:47:52;;;;;;;;;;;5.90;99.90;;;;;;5076407;28;19931;-81
2022/01/06 14:50:17;;;;;;;;;;;5.40;99.90;;;;;;5070690;22;20008;-82